Time;durP1;ratioP1;P1;durP2;ratioP2;P2;SDS_P1;SDS_P2;PMS_P1;PMS_P2;Temp;Humidity;BMP_temperature;BMP_pressure;BME280_temperature;BME280_humidity;BME280_pressure;Samples;Min_cycle;Max_cycle;Signal;HPM_P1;HPM_P2
2023/04/27 00:02:12;;;;;;;4.25;1.95;;;13.10;74.80;;;;;;5011872;28;20113;-84
2023/04/27 00:04:37;;;;;;;3.58;2.05;;;13.10;74.80;;;;;;5011476;28;20045;-84
2023/04/27 00:07:03;;;;;;;4.15;2.20;;;13.10;74.80;;;;;;5011789;28;20022;-83
2023/04/27 00:09:28;;;;;;;3.75;1.98;;;13.10;74.80;;;;;;5011429;28;20478;-83
2023/04/27 00:11:54;;;;;;;4.43;2.00;;;13.10;74.80;;;;;;5012633;28;20036;-82
2023/04/27 00:14:19;;;;;;;4.13;2.10;;;13.10;74.70;;;;;;5017611;28;20225;-84
2023/04/27 00:16:45;;;;;;;3.60;2.00;;;13.10;74.80;;;;;;5020292;28;20524;-84
2023/04/27 00:19:12;;;;;;;3.63;2.05;;;13.10;74.80;;;;;;5020387;28;20029;-84
2023/04/27 00:21:38;;;;;;;3.50;2.00;;;13.10;74.90;;;;;;5019123;28;20090;-84
2023/04/27 00:24:04;;;;;;;3.83;2.03;;;13.10;74.80;;;;;;5019700;28;20072;-84
2023/04/27 00:26:29;;;;;;;3.75;1.90;;;13.10;74.80;;;;;;5019600;28;20034;-84
2023/04/27 00:28:55;;;;;;;4.18;2.08;;;13.10;74.80;;;;;;5019498;28;20029;-83
2023/04/27 00:31:20;;;;;;;3.13;1.90;;;13.10;74.80;;;;;;5018239;28;20096;-84
2023/04/27 00:33:46;;;;;;;4.22;2.17;;;13.10;74.80;;;;;;5018478;28;20026;-83
2023/04/27 00:36:11;;;;;;;4.57;2.30;;;13.10;74.80;;;;;;5017684;28;20022;-84
2023/04/27 00:38:37;;;;;;;3.75;2.00;;;13.10;74.80;;;;;;5012876;28;20116;-82
2023/04/27 00:41:03;;;;;;;4.25;2.30;;;13.10;74.80;;;;;;5018238;28;20033;-83
2023/04/27 00:43:29;;;;;;;3.53;1.95;;;13.10;74.80;;;;;;5023766;28;20026;-83
2023/04/27 00:45:55;;;;;;;3.78;1.90;;;13.10;74.80;;;;;;5023743;28;20032;-85
2023/04/27 00:48:20;;;;;;;3.70;1.98;;;13.10;74.80;;;;;;5022613;28;20479;-84
2023/04/27 00:50:46;;;;;;;3.47;1.98;;;13.00;74.70;;;;;;5020199;28;20095;-82
2023/04/27 00:53:12;;;;;;;3.83;2.08;;;13.00;74.70;;;;;;5014622;28;20048;-82
2023/04/27 00:55:37;;;;;;;3.60;2.10;;;13.10;74.80;;;;;;5019911;28;20060;-82
2023/04/27 00:58:03;;;;;;;4.05;2.13;;;13.00;74.80;;;;;;5022186;28;20076;-83
2023/04/27 01:00:28;;;;;;;3.30;1.88;;;13.10;74.80;;;;;;5020559;28;20029;-82
2023/04/27 01:02:54;;;;;;;3.42;2.00;;;13.10;74.80;;;;;;5019168;28;20041;-83
2023/04/27 01:05:20;;;;;;;3.67;2.03;;;13.00;74.70;;;;;;5018907;28;20029;-84
2023/04/27 01:07:46;;;;;;;4.00;2.20;;;13.10;74.80;;;;;;5023365;28;20054;-84
2023/04/27 01:10:11;;;;;;;4.40;2.15;;;13.10;74.70;;;;;;5024459;28;20168;-85
2023/04/27 01:12:37;;;;;;;4.30;1.98;;;13.10;74.70;;;;;;5024333;28;20041;-84
2023/04/27 01:15:03;;;;;;;4.07;2.10;;;13.00;74.70;;;;;;5023328;28;20019;-85
2023/04/27 01:17:28;;;;;;;4.32;1.95;;;13.10;74.70;;;;;;5024009;28;20149;-84
2023/04/27 01:19:55;;;;;;;4.13;2.40;;;13.10;74.80;;;;;;5024903;28;20037;-82
2023/04/27 01:22:21;;;;;;;3.33;1.90;;;13.00;74.70;;;;;;5020622;28;20029;-83
2023/04/27 01:24:46;;;;;;;3.42;1.83;;;13.10;74.80;;;;;;5014712;28;20395;-83
2023/04/27 01:27:12;;;;;;;4.03;2.05;;;13.10;74.80;;;;;;5020450;28;20025;-82
2023/04/27 01:29:38;;;;;;;4.50;2.25;;;13.00;74.80;;;;;;5020465;28;20026;-83
2023/04/27 01:32:04;;;;;;;3.53;1.90;;;13.00;74.80;;;;;;5021060;28;20053;-83
2023/04/27 01:34:30;;;;;;;3.50;1.83;;;13.00;74.80;;;;;;5021815;28;20029;-83
2023/04/27 01:36:56;;;;;;;4.03;2.38;;;13.00;74.70;;;;;;5019799;28;20034;-82
2023/04/27 01:39:21;;;;;;;4.32;2.13;;;13.00;74.80;;;;;;5017982;28;20049;-84
2023/04/27 01:41:47;;;;;;;3.72;1.98;;;13.00;74.80;;;;;;5023220;28;20022;-83
2023/04/27 01:44:12;;;;;;;4.28;2.30;;;13.00;74.80;;;;;;5021014;28;20453;-84
2023/04/27 01:46:38;;;;;;;3.67;1.90;;;13.00;74.80;;;;;;5021279;28;20057;-86
2023/04/27 01:49:03;;;;;;;4.03;2.08;;;13.00;74.80;;;;;;5022406;28;20034;-84
2023/04/27 01:51:29;;;;;;;3.45;2.17;;;13.00;74.80;;;;;;5023508;28;20030;-84
2023/04/27 01:53:55;;;;;;;3.90;2.10;;;13.00;74.80;;;;;;5021317;28;20034;-83
2023/04/27 01:56:20;;;;;;;3.65;2.00;;;13.00;74.80;;;;;;5021136;28;20100;-83
2023/04/27 01:58:46;;;;;;;4.88;2.00;;;13.00;74.80;;;;;;5020735;28;20405;-82
2023/04/27 02:01:11;;;;;;;3.97;2.13;;;13.00;74.80;;;;;;5020030;28;20033;-83
2023/04/27 02:03:37;;;;;;;3.38;1.75;;;13.00;74.80;;;;;;5017666;28;20030;-83
2023/04/27 02:06:03;;;;;;;3.63;1.90;;;13.00;74.70;;;;;;5017658;28;20030;-84
2023/04/27 02:08:28;;;;;;;4.60;2.30;;;13.00;74.80;;;;;;5014185;28;20034;-82
2023/04/27 02:10:54;;;;;;;4.18;1.95;;;13.00;74.80;;;;;;5014005;28;20080;-83
2023/04/27 02:13:20;;;;;;;3.83;2.05;;;13.00;74.70;;;;;;5013767;28;20028;-84
2023/04/27 02:15:45;;;;;;;3.65;1.98;;;13.00;74.80;;;;;;5016643;28;20109;-83
2023/04/27 02:18:11;;;;;;;3.88;2.08;;;13.00;74.80;;;;;;5015178;28;20022;-82
2023/04/27 02:20:36;;;;;;;5.15;2.30;;;12.90;74.70;;;;;;5013598;28;20037;-82
2023/04/27 02:23:02;;;;;;;4.28;2.20;;;13.00;74.80;;;;;;5013306;28;20041;-82
2023/04/27 02:25:28;;;;;;;3.45;1.90;;;13.00;74.80;;;;;;5017089;28;20113;-82
2023/04/27 02:27:53;;;;;;;3.67;2.00;;;13.00;74.70;;;;;;5016948;28;20037;-84
2023/04/27 02:30:20;;;;;;;4.03;1.95;;;13.00;74.80;;;;;;5017515;28;20407;-83
2023/04/27 02:32:46;;;;;;;3.75;1.92;;;13.00;74.80;;;;;;5017105;28;20025;-83
2023/04/27 02:35:12;;;;;;;3.13;1.90;;;13.00;74.80;;;;;;5014878;28;20026;-85
2023/04/27 02:37:37;;;;;;;3.38;2.10;;;13.00;74.80;;;;;;5013042;28;20022;-83
2023/04/27 02:40:06;;;;;;;3.80;2.10;;;13.00;74.80;;;;;;5015210;28;20080;-81
2023/04/27 02:42:32;;;;;;;3.88;2.08;;;13.00;74.80;;;;;;5016145;28;20026;-83
2023/04/27 02:44:57;;;;;;;2.88;1.70;;;12.90;74.80;;;;;;5016866;28;20386;-83
2023/04/27 02:47:23;;;;;;;3.13;2.00;;;13.00;74.90;;;;;;5012804;28;20053;-83
2023/04/27 02:49:48;;;;;;;3.42;1.90;;;13.00;74.90;;;;;;5012767;28;20497;-83
2023/04/27 02:52:13;;;;;;;3.10;1.95;;;12.90;74.80;;;;;;5014312;28;20025;-83
2023/04/27 02:54:39;;;;;;;3.65;2.08;;;12.90;74.80;;;;;;5014249;28;20495;-83
2023/04/27 02:57:05;;;;;;;3.53;1.83;;;13.00;74.90;;;;;;5014352;28;20026;-83
2023/04/27 02:59:31;;;;;;;3.38;2.20;;;13.00;74.70;;;;;;5014397;28;20395;-84
2023/04/27 03:01:56;;;;;;;3.08;1.83;;;13.00;74.80;;;;;;5013270;28;20045;-83
2023/04/27 03:04:22;;;;;;;3.72;1.95;;;12.90;74.80;;;;;;5014302;28;20022;-83
2023/04/27 03:06:47;;;;;;;3.75;1.70;;;12.90;74.90;;;;;;5014292;28;20530;-83
2023/04/27 03:09:13;;;;;;;3.25;1.90;;;12.90;74.80;;;;;;5013880;28;20117;-83
2023/04/27 03:11:38;;;;;;;4.38;2.10;;;12.90;74.80;;;;;;5013318;28;20029;-83
2023/04/27 03:14:05;;;;;;;3.70;1.90;;;13.00;75.00;;;;;;5014653;28;20499;-83
2023/04/27 03:16:34;;;;;;;3.95;1.92;;;12.90;74.80;;;;;;5015339;28;20026;-83
2023/04/27 03:19:00;;;;;;;3.42;1.80;;;12.90;74.80;;;;;;5012294;28;20030;-82
2023/04/27 03:21:26;;;;;;;3.20;1.73;;;12.90;74.90;;;;;;5012033;28;20022;-83
2023/04/27 03:23:52;;;;;;;3.80;2.20;;;12.90;74.90;;;;;;5012513;28;20501;-83
2023/04/27 03:26:17;;;;;;;3.05;1.80;;;12.90;75.00;;;;;;5012434;28;20506;-82
2023/04/27 03:28:43;;;;;;;4.38;2.10;;;12.90;74.90;;;;;;5013139;28;20026;-82
2023/04/27 03:31:10;;;;;;;4.25;2.20;;;12.90;74.90;;;;;;5012953;28;20068;-83
2023/04/27 03:33:36;;;;;;;3.90;1.85;;;12.90;75.40;;;;;;5011827;28;20505;-82
2023/04/27 03:36:03;;;;;;;3.88;1.80;;;12.90;74.90;;;;;;5011789;28;20029;-81
2023/04/27 03:38:29;;;;;;;3.33;1.80;;;12.90;74.90;;;;;;5011992;28;20029;-84
2023/04/27 03:40:55;;;;;;;3.63;2.13;;;12.90;75.00;;;;;;5011715;28;20041;-83
2023/04/27 03:43:21;;;;;;;3.35;2.03;;;12.90;74.90;;;;;;5012195;28;20029;-83
2023/04/27 03:45:47;;;;;;;3.40;1.85;;;12.90;74.90;;;;;;5013340;28;20061;-83
2023/04/27 03:48:13;;;;;;;3.83;1.90;;;12.90;74.90;;;;;;5011950;28;20048;-83
2023/04/27 03:50:40;;;;;;;4.32;2.10;;;12.90;75.00;;;;;;5011580;28;20053;-83
2023/04/27 03:53:05;;;;;;;3.58;2.05;;;12.90;75.50;;;;;;5011923;28;20486;-86
2023/04/27 03:55:31;;;;;;;4.07;1.88;;;12.90;75.00;;;;;;5020975;28;20157;-84
2023/04/27 03:57:56;;;;;;;3.20;2.05;;;12.90;75.00;;;;;;5020542;28;20530;-84
2023/04/27 04:00:22;;;;;;;3.65;2.08;;;12.90;74.90;;;;;;5019003;28;20022;-84
2023/04/27 04:02:48;;;;;;;3.03;1.95;;;12.90;75.00;;;;;;5021821;28;20363;-84
2023/04/27 04:05:14;;;;;;;3.58;1.90;;;12.90;75.00;;;;;;5022027;28;20026;-84
2023/04/27 04:07:43;;;;;;;3.33;2.10;;;12.90;75.00;;;;;;5020763;28;20451;-85
2023/04/27 04:10:09;;;;;;;3.28;1.80;;;12.90;75.00;;;;;;5020111;28;20057;-83
2023/04/27 04:12:34;;;;;;;3.95;2.05;;;12.90;75.00;;;;;;5021551;28;20511;-86
2023/04/27 04:15:00;;;;;;;2.70;1.70;;;12.90;75.00;;;;;;5021777;28;20069;-83
2023/04/27 04:17:26;;;;;;;3.58;2.08;;;12.90;75.00;;;;;;5025623;28;20018;-83
2023/04/27 04:19:51;;;;;;;3.65;1.92;;;12.90;75.10;;;;;;5016924;28;20394;-82
2023/04/27 04:22:17;;;;;;;3.60;2.20;;;12.90;75.00;;;;;;5019668;28;20018;-83
2023/04/27 04:24:42;;;;;;;3.63;2.13;;;12.90;75.00;;;;;;5023115;28;20032;-82
2023/04/27 04:27:08;;;;;;;4.13;2.13;;;12.90;75.00;;;;;;5024395;28;20030;-83
2023/04/27 04:29:33;;;;;;;3.50;1.88;;;12.90;75.00;;;;;;5024164;28;20024;-84
2023/04/27 04:31:59;;;;;;;3.53;2.00;;;12.90;75.00;;;;;;5009143;28;20781;-83
2023/04/27 04:34:25;;;;;;;3.80;2.00;;;12.90;75.00;;;;;;5003419;28;20073;-81
2023/04/27 04:36:50;;;;;;;3.50;2.03;;;12.90;75.00;;;;;;5014553;28;20025;-83
2023/04/27 04:39:19;;;;;;;3.92;2.00;;;12.90;74.90;;;;;;5013501;28;20022;-81
2023/04/27 04:41:50;;;;;;;4.40;2.17;;;12.90;74.90;;;;;;5015111;28;20089;-81
2023/04/27 04:44:19;;;;;;;4.03;2.03;;;12.90;75.00;;;;;;5015692;28;20726;-79
2023/04/27 04:46:46;;;;;;;3.22;1.88;;;12.90;75.00;;;;;;5016007;28;20065;-80
2023/04/27 04:49:12;;;;;;;3.33;2.03;;;12.90;75.00;;;;;;5020693;28;20034;-84
2023/04/27 04:51:42;;;;;;;4.40;2.30;;;13.10;75.10;;;;;;5014624;28;20427;-84
2023/04/27 04:54:08;;;;;;;3.53;2.05;;;12.90;75.00;;;;;;5021817;28;20022;-81
2023/04/27 04:56:34;;;;;;;3.35;1.92;;;12.70;74.80;;;;;;5021206;28;20446;-84
2023/04/27 04:59:01;;;;;;;3.83;2.05;;;12.90;75.00;;;;;;5021029;28;20030;-79
2023/04/27 05:01:28;;;;;;;2.65;1.67;;;12.90;75.00;;;;;;5019416;28;20034;-80
2023/04/27 05:08:58;;;;;;;4.00;2.08;;;12.90;75.00;;;;;;5015173;28;20053;-82
2023/04/27 05:11:24;;;;;;;3.25;1.80;;;13.20;75.10;;;;;;4998976;28;20026;-80
2023/04/27 05:13:55;;;;;;;4.28;2.10;;;12.90;75.00;;;;;;5000015;28;20033;-81
2023/04/27 05:16:43;;;;;;;2.85;1.88;;;13.30;75.10;;;;;;5000562;28;20395;-82
2023/04/27 05:19:19;;;;;;;3.33;1.88;;;12.90;74.90;;;;;;5000158;28;20045;-81
2023/04/27 05:25:03;;;;;;;;;;;;;;;;;;;;;
2023/04/27 05:27:39;;;;;;;3.63;2.08;;;12.50;74.60;;;;;;5015558;28;20514;-82
2023/04/27 05:30:23;;;;;;;3.30;2.03;;;12.90;74.80;;;;;;4999742;28;20478;-81
2023/04/27 05:39:47;;;;;;;4.20;2.28;;;12.70;74.70;;;;;;5004889;28;20539;-81
2023/04/27 05:48:57;;;;;;;3.60;2.00;;;12.90;74.90;;;;;;5056979;28;20503;-82
2023/04/27 07:17:47;;;;;;;2.70;1.70;;;13.40;73.60;;;;;;4991337;28;20058;-82
2023/04/27 07:21:09;;;;;;;3.35;1.95;;;13.60;73.80;;;;;;4990865;28;20037;-80
2023/04/27 07:26:32;;;;;;;2.83;1.90;;;13.40;73.60;;;;;;4992592;28;20081;-83
2023/04/27 07:35:55;;;;;;;;;;;;;;;;;;;;;
2023/04/27 07:38:39;;;;;;;2.88;1.67;;;13.70;73.60;;;;;;4998456;28;20890;-87
2023/04/27 08:55:48;;;;;;;3.67;1.98;;;14.10;72.70;;;;;;5269977;23;20196;-83
2023/04/27 08:58:14;;;;;;;3.67;2.00;;;14.20;72.90;;;;;;5011410;28;20033;-85
2023/04/27 09:00:45;;;;;;;3.70;2.00;;;14.20;72.80;;;;;;5016006;28;20486;-83
2023/04/27 09:03:21;;;;;;;3.75;2.00;;;14.30;72.70;;;;;;5030700;28;20545;-84
2023/04/27 09:05:47;;;;;;;5.35;2.10;;;14.20;72.70;;;;;;5012424;28;20045;-85
2023/04/27 09:08:13;;;;;;;3.15;1.88;;;14.30;72.90;;;;;;5011199;28;20033;-85
2023/04/27 09:10:46;;;;;;;2.50;1.70;;;14.30;72.80;;;;;;5011185;28;20030;-86
2023/04/27 09:13:12;;;;;;;4.18;1.90;;;14.30;72.30;;;;;;5009875;28;20506;-83
2023/04/27 09:15:42;;;;;;;4.25;2.13;;;14.40;72.40;;;;;;5010232;28;20132;-84
2023/04/27 09:18:14;;;;;;;5.60;2.20;;;14.30;72.00;;;;;;5011997;28;20393;-85
2023/04/27 09:20:48;;;;;;;2.92;1.80;;;14.30;71.80;;;;;;5012555;28;20033;-84
2023/04/27 09:23:34;;;;;;;4.30;2.28;;;14.30;71.80;;;;;;5012326;28;20034;-84
2023/04/27 09:26:07;;;;;;;6.25;2.20;;;14.40;72.10;;;;;;5012471;28;20053;-83
2023/04/27 09:28:34;;;;;;;3.83;2.20;;;14.40;71.90;;;;;;5014102;28;20093;-84
2023/04/27 09:31:02;;;;;;;5.50;2.03;;;14.40;72.00;;;;;;5012238;28;20413;-85
2023/04/27 09:33:33;;;;;;;4.40;2.10;;;14.40;72.10;;;;;;5016199;28;20510;-87
2023/04/27 09:36:00;;;;;;;2.97;1.80;;;14.40;71.90;;;;;;5016951;28;20038;-87
2023/04/27 09:38:26;;;;;;;4.45;2.00;;;14.40;72.10;;;;;;5016782;28;20053;-86
2023/04/27 09:40:53;;;;;;;3.60;1.80;;;14.40;72.00;;;;;;5017715;28;20430;-87
2023/04/27 09:43:18;;;;;;;4.22;1.80;;;14.40;72.20;;;;;;5020778;28;20022;-88
2023/04/27 09:45:45;;;;;;;5.50;1.80;;;14.40;71.90;;;;;;5024816;28;20052;-84
2023/04/27 09:48:11;;;;;;;5.50;2.20;;;14.40;72.20;;;;;;5019325;28;20445;-85
2023/04/27 09:50:39;;;;;;;6.65;2.03;;;14.50;72.00;;;;;;5020501;28;20505;-83
2023/04/27 09:53:19;;;;;;;3.58;1.90;;;14.50;71.90;;;;;;5016312;28;20061;-86
2023/04/27 09:56:09;;;;;;;4.47;2.22;;;14.50;72.40;;;;;;5016194;28;20052;-86
2023/04/27 09:59:01;;;;;;;4.17;2.00;;;14.50;72.40;;;;;;5015216;28;20029;-85
2023/04/27 10:01:39;;;;;;;3.58;1.95;;;14.50;72.30;;;;;;5015467;28;20026;-86
2023/04/27 10:04:40;;;;;;;3.20;1.80;;;14.50;72.00;;;;;;5015631;28;20108;-87
2023/04/27 10:07:11;;;;;;;2.88;1.80;;;14.60;72.20;;;;;;5014965;28;20029;-87
2023/04/27 10:09:50;;;;;;;2.92;1.75;;;14.60;71.80;;;;;;5015936;28;20026;-88
2023/04/27 10:12:25;;;;;;;3.67;2.00;;;14.60;71.90;;;;;;5014114;28;20042;-86
2023/04/27 10:14:53;;;;;;;3.72;1.85;;;14.60;72.30;;;;;;5014804;28;20506;-85
2023/04/27 10:17:29;;;;;;;3.20;1.90;;;14.50;71.90;;;;;;5014212;28;20040;-85
2023/04/27 10:19:57;;;;;;;3.40;1.88;;;14.50;72.20;;;;;;5012371;28;20022;-82
2023/04/27 10:22:23;;;;;;;3.15;1.73;;;14.50;72.00;;;;;;5010670;28;20049;-83
2023/04/27 10:24:50;;;;;;;2.70;1.70;;;14.50;71.90;;;;;;5010592;28;20076;-82
2023/04/27 10:27:18;;;;;;;3.88;1.88;;;14.50;72.40;;;;;;5015916;28;20021;-82
2023/04/27 10:29:46;;;;;;;4.85;2.17;;;14.50;71.40;;;;;;5013663;28;20033;-83
2023/04/27 10:32:20;;;;;;;4.35;1.92;;;14.40;70.60;;;;;;5010676;28;20018;-86
2023/04/27 10:34:47;;;;;;;4.53;2.15;;;14.50;70.40;;;;;;4993922;28;20117;-84
2023/04/27 10:37:14;;;;;;;4.35;2.28;;;14.50;69.30;;;;;;4993239;28;20072;-85
2023/04/27 10:39:41;;;;;;;4.53;2.00;;;14.50;70.60;;;;;;4993861;28;20563;-86
2023/04/27 10:42:07;;;;;;;4.72;2.08;;;14.50;70.40;;;;;;4993804;28;20041;-85
2023/04/27 10:44:34;;;;;;;4.53;2.17;;;14.50;69.80;;;;;;4993636;28;20030;-85
2023/04/27 10:47:10;;;;;;;4.55;1.95;;;14.60;69.60;;;;;;4993434;28;20383;-85
2023/04/27 10:49:37;;;;;;;4.93;1.90;;;14.60;71.00;;;;;;4993579;28;20029;-85
2023/04/27 10:52:03;;;;;;;5.28;2.03;;;14.60;70.70;;;;;;4992603;28;20499;-84
2023/04/27 10:54:30;;;;;;;4.57;2.17;;;14.60;70.00;;;;;;4990815;28;20038;-85
2023/04/27 10:57:15;;;;;;;3.83;1.83;;;14.60;70.40;;;;;;4992527;28;20027;-85
2023/04/27 10:59:51;;;;;;;5.10;2.15;;;14.60;70.90;;;;;;4992301;28;20037;-81
2023/04/27 11:02:25;;;;;;;3.05;2.00;;;14.60;71.10;;;;;;4993764;28;20069;-84
2023/04/27 11:04:50;;;;;;;4.85;1.80;;;14.50;71.00;;;;;;4993167;28;20030;-86
2023/04/27 11:07:27;;;;;;;4.05;2.22;;;14.60;70.80;;;;;;5000506;28;20061;-86
2023/04/27 11:09:52;;;;;;;4.00;1.90;;;14.60;71.10;;;;;;4999690;28;20026;-86
2023/04/27 11:12:18;;;;;;;3.97;1.92;;;14.50;71.00;;;;;;4999837;28;20026;-86
2023/04/27 11:14:44;;;;;;;4.40;2.00;;;14.60;70.90;;;;;;4999153;28;20038;-86
2023/04/27 11:17:10;;;;;;;3.80;1.77;;;14.50;70.90;;;;;;4998914;28;20514;-83
2023/04/27 11:19:46;;;;;;;3.53;1.88;;;14.50;71.00;;;;;;4998760;28;20019;-80
2023/04/27 11:22:15;;;;;;;3.53;1.60;;;14.60;71.60;;;;;;4999073;28;20030;-84
2023/04/27 11:24:51;;;;;;;3.70;1.80;;;14.60;71.80;;;;;;5000228;28;20026;-85
2023/04/27 11:27:17;;;;;;;3.08;1.63;;;14.60;71.90;;;;;;4998301;28;20030;-84
2023/04/27 11:29:43;;;;;;;3.72;1.70;;;14.60;71.80;;;;;;4997970;28;20064;-83
2023/04/27 11:32:18;;;;;;;2.45;1.55;;;14.50;72.20;;;;;;4997761;28;20022;-84
2023/04/27 11:34:49;;;;;;;4.40;2.08;;;14.60;72.20;;;;;;4994303;28;20034;-85
2023/04/27 11:37:24;;;;;;;2.97;1.50;;;14.60;71.80;;;;;;4994927;28;20022;-84
2023/04/27 11:39:50;;;;;;;3.25;1.85;;;14.60;71.90;;;;;;4997041;28;20044;-84
2023/04/27 11:42:21;;;;;;;4.20;1.70;;;14.60;72.00;;;;;;4996943;28;20313;-85
2023/04/27 11:44:57;;;;;;;3.50;1.80;;;14.60;71.90;;;;;;4996940;28;20037;-84
2023/04/27 11:47:26;;;;;;;2.35;1.50;;;14.60;71.80;;;;;;4996228;28;20121;-84
2023/04/27 11:49:54;;;;;;;2.70;1.73;;;14.60;71.90;;;;;;4993535;28;20022;-84
2023/04/27 11:52:21;;;;;;;3.83;1.60;;;14.60;71.80;;;;;;4992909;28;20045;-84
2023/04/27 11:54:57;;;;;;;4.15;1.77;;;14.60;71.90;;;;;;4994827;28;20034;-84
2023/04/27 11:57:34;;;;;;;3.20;1.80;;;14.60;71.80;;;;;;4997771;28;20065;-84
2023/04/27 12:00:01;;;;;;;3.03;1.75;;;14.60;71.70;;;;;;4998336;28;20022;-83
2023/04/27 12:02:30;;;;;;;2.58;1.77;;;14.60;71.70;;;;;;4998370;28;20398;-85
2023/04/27 12:04:57;;;;;;;2.78;1.80;;;14.60;71.50;;;;;;4999093;28;20098;-84
2023/04/27 12:07:23;;;;;;;3.28;1.90;;;14.60;71.70;;;;;;5000500;28;20072;-85
2023/04/27 12:09:48;;;;;;;2.72;1.50;;;14.60;71.50;;;;;;4999134;28;20026;-85
2023/04/27 12:12:17;;;;;;;3.65;1.60;;;14.60;71.60;;;;;;4998278;28;20118;-85
2023/04/27 12:14:43;;;;;;;2.63;1.60;;;14.60;71.60;;;;;;4998382;28;20018;-84
2023/04/27 12:17:09;;;;;;;2.65;1.58;;;14.60;71.40;;;;;;4998099;28;20026;-85
2023/04/27 12:19:36;;;;;;;2.55;1.70;;;14.50;71.30;;;;;;4999702;28;20154;-84
2023/04/27 12:22:01;;;;;;;2.70;1.60;;;14.60;71.40;;;;;;4997599;28;20045;-84
2023/04/27 12:24:27;;;;;;;3.42;1.80;;;14.50;71.30;;;;;;4999752;28;20483;-84
2023/04/27 12:26:52;;;;;;;3.88;1.80;;;14.50;71.30;;;;;;4998878;28;20077;-84
2023/04/27 12:29:18;;;;;;;2.67;1.65;;;14.50;71.40;;;;;;4997064;28;20027;-84
2023/04/27 12:31:43;;;;;;;3.25;1.77;;;14.40;71.30;;;;;;4996861;28;20100;-84
2023/04/27 12:34:09;;;;;;;2.42;1.60;;;14.50;71.40;;;;;;4996868;28;20026;-84
2023/04/27 12:36:35;;;;;;;3.72;1.90;;;14.50;71.40;;;;;;4999362;28;20028;-84
2023/04/27 12:39:15;;;;;;;3.80;1.90;;;14.50;71.40;;;;;;5000210;28;20022;-84
2023/04/27 12:41:43;;;;;;;4.20;1.70;;;14.50;71.50;;;;;;5001684;28;20033;-84
2023/04/27 12:44:09;;;;;;;3.50;1.70;;;14.40;71.50;;;;;;4999525;28;20053;-84
2023/04/27 12:46:34;;;;;;;4.65;1.80;;;14.50;71.50;;;;;;4999668;28;20483;-84
2023/04/27 12:49:00;;;;;;;2.33;1.60;;;14.40;71.50;;;;;;4999644;28;20031;-84
2023/04/27 12:51:27;;;;;;;3.20;1.80;;;14.40;71.60;;;;;;4999956;28;20069;-84
2023/04/27 12:53:53;;;;;;;3.28;1.70;;;14.40;71.70;;;;;;4998547;28;20037;-84
2023/04/27 12:56:18;;;;;;;2.97;1.70;;;14.40;71.70;;;;;;4997275;28;20492;-83
2023/04/27 12:58:44;;;;;;;3.13;1.65;;;14.40;71.70;;;;;;5000334;28;20089;-84
2023/04/27 13:01:13;;;;;;;3.22;1.95;;;14.40;71.80;;;;;;5000007;28;20022;-84
2023/04/27 13:03:43;;;;;;;3.53;1.75;;;14.40;71.80;;;;;;5000527;28;20026;-84
2023/04/27 13:06:08;;;;;;;3.47;1.77;;;14.30;71.80;;;;;;4999628;28;20106;-84
2023/04/27 13:08:36;;;;;;;3.30;1.75;;;14.30;71.90;;;;;;4999672;28;20053;-84
2023/04/27 13:11:02;;;;;;;3.58;1.65;;;14.30;71.90;;;;;;4997371;28;20471;-84
2023/04/27 13:13:27;;;;;;;2.72;1.65;;;14.30;72.00;;;;;;4997678;28;20034;-84
2023/04/27 13:15:53;;;;;;;2.63;1.70;;;14.30;72.00;;;;;;4999870;28;20026;-84
2023/04/27 13:18:18;;;;;;;2.65;1.73;;;14.30;72.00;;;;;;4998293;28;20029;-84
2023/04/27 13:20:44;;;;;;;3.92;1.70;;;14.30;72.10;;;;;;4998795;28;20105;-84
2023/04/27 13:23:10;;;;;;;3.13;1.70;;;14.20;72.00;;;;;;4999030;28;20475;-84
2023/04/27 13:25:36;;;;;;;3.75;2.10;;;14.30;72.20;;;;;;4994888;28;20037;-84
2023/04/27 13:28:01;;;;;;;2.30;1.60;;;14.30;72.70;;;;;;4994921;28;20030;-84
2023/04/27 13:30:27;;;;;;;3.35;1.88;;;14.30;72.10;;;;;;4994133;28;20030;-84
2023/04/27 13:32:52;;;;;;;3.05;1.85;;;14.30;72.20;;;;;;4994310;28;20037;-84
2023/04/27 13:35:18;;;;;;;2.63;1.60;;;14.20;72.20;;;;;;4996872;28;20037;-84
2023/04/27 13:37:44;;;;;;;2.78;1.67;;;14.20;72.20;;;;;;4995762;28;20030;-84
2023/04/27 13:40:10;;;;;;;3.88;1.98;;;14.20;72.20;;;;;;4996230;28;20026;-83
2023/04/27 13:42:36;;;;;;;3.53;1.90;;;14.20;72.20;;;;;;4996221;28;20023;-84
2023/04/27 13:45:03;;;;;;;3.05;1.85;;;14.20;72.10;;;;;;4995420;28;20058;-84
2023/04/27 13:47:35;;;;;;;2.28;1.70;;;14.20;72.20;;;;;;4993921;28;20022;-84
2023/04/27 13:50:05;;;;;;;3.35;1.90;;;14.20;72.20;;;;;;4996913;28;20038;-83
2023/04/27 13:52:31;;;;;;;3.40;1.90;;;14.20;72.10;;;;;;4996018;28;20037;-84
2023/04/27 13:54:57;;;;;;;4.30;2.00;;;14.20;72.20;;;;;;4993979;28;20030;-83
2023/04/27 13:57:22;;;;;;;3.35;1.85;;;14.20;72.20;;;;;;4995452;28;20137;-84
2023/04/27 13:59:48;;;;;;;2.50;1.77;;;14.20;72.20;;;;;;4995290;28;20022;-84
2023/04/27 14:02:13;;;;;;;3.72;1.90;;;14.20;72.30;;;;;;4996527;28;20403;-83
2023/04/27 14:04:39;;;;;;;3.88;2.00;;;14.20;72.30;;;;;;4996446;28;20041;-84
2023/04/27 14:07:04;;;;;;;3.08;1.75;;;14.20;72.40;;;;;;4995210;28;20030;-83
2023/04/27 14:09:30;;;;;;;2.53;1.63;;;14.20;72.30;;;;;;4995181;28;20030;-83
2023/04/27 14:11:56;;;;;;;3.20;2.10;;;14.10;72.30;;;;;;4994446;28;20026;-84
2023/04/27 14:14:22;;;;;;;3.00;1.80;;;14.10;72.40;;;;;;4993514;28;20034;-84
2023/04/27 14:16:49;;;;;;;3.25;1.85;;;14.10;72.30;;;;;;4995495;28;20154;-84
2023/04/27 14:19:15;;;;;;;3.88;1.80;;;14.10;72.40;;;;;;4994614;28;20033;-83
2023/04/27 14:21:41;;;;;;;2.92;1.63;;;14.00;72.30;;;;;;4994204;28;20023;-84
2023/04/27 14:24:06;;;;;;;2.95;1.90;;;14.10;73.00;;;;;;4993496;28;20399;-84
2023/04/27 14:26:32;;;;;;;3.15;1.90;;;14.10;72.40;;;;;;4993779;28;20033;-84
2023/04/27 14:28:57;;;;;;;2.17;1.50;;;14.10;72.40;;;;;;4994290;28;20033;-84
2023/04/27 14:31:24;;;;;;;3.53;1.85;;;14.10;72.40;;;;;;4993138;28;20026;-84
2023/04/27 14:33:51;;;;;;;3.70;2.20;;;14.10;72.50;;;;;;4992976;28;20026;-84
2023/04/27 14:36:17;;;;;;;3.60;2.10;;;14.10;72.50;;;;;;4993051;28;20026;-83
2023/04/27 14:38:43;;;;;;;3.00;2.00;;;14.10;72.50;;;;;;4993512;28;20061;-84
2023/04/27 14:41:09;;;;;;;2.58;1.58;;;14.10;72.50;;;;;;4993025;28;20438;-84
2023/04/27 14:43:34;;;;;;;3.83;1.88;;;14.10;72.50;;;;;;4993004;28;20018;-83
2023/04/27 14:46:00;;;;;;;3.80;1.90;;;14.10;72.40;;;;;;4994323;28;20037;-83
2023/04/27 14:48:26;;;;;;;3.53;2.08;;;14.10;72.50;;;;;;4994604;28;20121;-84
2023/04/27 14:50:52;;;;;;;3.53;1.83;;;14.00;72.40;;;;;;4994257;28;20065;-84
2023/04/27 14:53:17;;;;;;;2.97;1.90;;;14.10;72.70;;;;;;4993747;28;20037;-84
2023/04/27 14:55:44;;;;;;;3.72;2.00;;;14.10;72.60;;;;;;4992738;28;20041;-84
2023/04/27 14:58:10;;;;;;;3.90;2.00;;;14.00;72.50;;;;;;4998577;28;20030;-84
2023/04/27 15:00:36;;;;;;;3.17;2.00;;;14.00;72.50;;;;;;5000038;28;20120;-84
2023/04/27 15:03:01;;;;;;;3.92;2.20;;;14.00;72.60;;;;;;5001042;28;20498;-84
2023/04/27 15:05:27;;;;;;;3.58;1.90;;;14.00;72.60;;;;;;4999956;28;20395;-84
2023/04/27 15:07:52;;;;;;;3.03;1.83;;;14.00;72.50;;;;;;5001278;28;20049;-84
2023/04/27 15:10:18;;;;;;;3.13;1.92;;;14.00;72.60;;;;;;4998627;28;20029;-84
2023/04/27 15:12:44;;;;;;;3.28;1.90;;;14.00;72.50;;;;;;4998139;28;20113;-84
2023/04/27 15:15:11;;;;;;;4.05;1.98;;;14.00;72.50;;;;;;4998426;28;20034;-84
2023/04/27 15:17:37;;;;;;;3.45;1.95;;;14.00;72.60;;;;;;4998347;28;20018;-83
2023/04/27 15:20:04;;;;;;;3.10;1.90;;;14.00;72.60;;;;;;4998285;28;20022;-84
2023/04/27 15:22:30;;;;;;;3.65;2.05;;;14.00;72.60;;;;;;4997918;28;20022;-85
2023/04/27 15:24:56;;;;;;;3.58;2.20;;;14.00;72.50;;;;;;4997881;28;20030;-83
2023/04/27 15:27:21;;;;;;;3.72;2.20;;;14.00;72.70;;;;;;4998988;28;20088;-84
2023/04/27 15:29:47;;;;;;;3.50;2.00;;;14.00;72.60;;;;;;4997264;28;20443;-84
2023/04/27 15:32:13;;;;;;;3.88;2.25;;;13.90;72.60;;;;;;4996969;28;20023;-84
2023/04/27 15:34:43;;;;;;;4.47;2.33;;;14.00;72.60;;;;;;4999064;28;20034;-84
2023/04/27 15:37:09;;;;;;;3.58;2.28;;;13.90;72.80;;;;;;4997742;28;20018;-84
2023/04/27 15:39:35;;;;;;;4.38;2.10;;;13.90;72.80;;;;;;4996862;28;20019;-84
2023/04/27 15:42:00;;;;;;;4.88;2.40;;;13.90;72.80;;;;;;4996120;28;20032;-85
2023/04/27 15:44:26;;;;;;;3.30;2.00;;;13.90;72.90;;;;;;4998032;28;20022;-84
2023/04/27 15:46:52;;;;;;;3.58;2.10;;;13.80;72.80;;;;;;4996097;28;20045;-84
2023/04/27 15:49:17;;;;;;;4.25;2.20;;;13.90;72.90;;;;;;4996263;28;20562;-84
2023/04/27 15:51:43;;;;;;;3.72;2.00;;;13.90;73.00;;;;;;4991911;28;20030;-84
2023/04/27 15:54:08;;;;;;;4.05;2.20;;;13.90;73.00;;;;;;4997442;28;20030;-85
2023/04/27 15:56:34;;;;;;;4.47;2.35;;;13.90;73.00;;;;;;4999629;28;20027;-85
2023/04/27 15:58:59;;;;;;;3.83;2.20;;;13.90;73.10;;;;;;4999105;28;20528;-85
2023/04/27 16:01:25;;;;;;;3.63;2.20;;;13.90;73.00;;;;;;4998313;28;20023;-84
2023/04/27 16:03:51;;;;;;;3.22;2.05;;;13.90;73.10;;;;;;4998998;28;20414;-84